createdAt,value
2022-09-26T00:02:31.256Z,13.23
2022-09-26T00:04:59.929Z,16.83
2022-09-26T00:07:28.522Z,16.83
2022-09-26T00:09:57.331Z,17.53
2022-09-26T00:12:25.976Z,20.40
2022-09-26T00:14:54.618Z,21.57
2022-09-26T00:17:23.242Z,20.83
2022-09-26T00:19:53.292Z,19.37
2022-09-26T00:22:21.910Z,19.47
2022-09-26T00:24:55.529Z,21.00
2022-09-26T00:27:24.567Z,20.30
2022-09-26T00:29:53.164Z,20.23
2022-09-26T00:32:22.107Z,20.83
2022-09-26T00:34:53.130Z,21.90
2022-09-26T00:37:21.767Z,23.53
2022-09-26T00:39:50.392Z,22.63
2022-09-26T00:42:18.957Z,23.90
2022-09-26T00:44:54.510Z,22.50
2022-09-26T00:47:46.059Z,24.67
2022-09-26T00:50:25.008Z,23.17
2022-09-26T00:52:58.148Z,25.20
2022-09-26T00:55:36.315Z,24.63
2022-09-26T00:58:14.129Z,21.83
2022-09-26T01:00:45.901Z,27.10
2022-09-26T01:03:16.903Z,22.93
2022-09-26T01:05:48.910Z,24.83
2022-09-26T01:08:26.840Z,22.83
2022-09-26T01:10:56.184Z,24.10
2022-09-26T01:13:25.670Z,23.47
2022-09-26T01:15:54.366Z,25.93
2022-09-26T01:18:23.748Z,27.97
2022-09-26T01:21:04.677Z,27.03
2022-09-26T01:24:19.056Z,30.03
2022-09-26T01:27:30.123Z,23.93
2022-09-26T01:30:11.053Z,23.63
2022-09-26T01:33:36.111Z,24.30
2022-09-26T01:36:45.065Z,16.17
2022-09-26T01:39:49.044Z,13.87
2022-09-26T01:42:33.995Z,16.07
2022-09-26T01:45:14.995Z,14.53
2022-09-26T01:47:51.720Z,15.20
2022-09-26T01:50:28.941Z,12.27
2022-09-26T01:53:05.589Z,14.37
2022-09-26T01:55:40.548Z,13.33
2022-09-26T01:58:17.299Z,15.57
2022-09-26T02:00:50.991Z,13.63
2022-09-26T02:03:28.443Z,15.10
2022-09-26T02:06:04.480Z,14.87
2022-09-26T02:08:40.193Z,16.93
2022-09-26T02:11:16.782Z,15.13
2022-09-26T02:13:53.385Z,15.87
2022-09-26T02:16:28.751Z,16.43
2022-09-26T02:19:04.843Z,20.80
2022-09-26T02:21:38.180Z,16.43
2022-09-26T02:24:07.318Z,16.20
2022-09-26T02:26:37.530Z,15.47
2022-09-26T02:29:07.941Z,13.50
2022-09-26T02:31:44.762Z,13.00
2022-09-26T02:34:14.811Z,11.57
2022-09-26T02:36:44.723Z,14.33
2022-09-26T02:39:14.168Z,13.00
2022-09-26T02:42:19.160Z,17.17
2022-09-26T02:45:22.755Z,10.47
2022-09-26T02:48:21.593Z,10.77
2022-09-26T02:51:12.546Z,11.63
2022-09-26T02:54:09.433Z,14.50
2022-09-26T02:57:08.788Z,10.77
2022-09-26T02:59:52.546Z,10.57
2022-09-26T03:03:20.725Z,10.47
2022-09-26T03:06:00.369Z,11.37
2022-09-26T03:08:34.572Z,9.87
2022-09-26T03:11:10.925Z,15.33
2022-09-26T03:13:41.758Z,11.43
2022-09-26T03:16:14.747Z,11.23
2022-09-26T03:18:53.526Z,11.10
2022-09-26T03:21:22.994Z,10.27
2022-09-26T03:23:52.675Z,10.80
2022-09-26T03:26:24.741Z,10.20
2022-09-26T03:29:02.775Z,8.13
2022-09-26T03:31:34.101Z,12.60
2022-09-26T03:34:07.487Z,11.40
2022-09-26T03:36:36.204Z,11.93
2022-09-26T03:39:05.626Z,10.27
2022-09-26T03:41:38.703Z,9.47
2022-09-26T03:44:07.479Z,10.17
2022-09-26T03:47:02.016Z,9.63
2022-09-26T03:49:32.269Z,10.03
2022-09-26T03:52:01.012Z,13.17
2022-09-26T03:54:30.377Z,9.53
2022-09-26T03:56:59.398Z,11.03
2022-09-26T03:59:28.998Z,12.23
2022-09-26T04:01:58.378Z,11.97
2022-09-26T04:04:27.884Z,11.17
2022-09-26T04:06:59.634Z,14.43
2022-09-26T04:09:29.991Z,12.33
2022-09-26T04:11:59.006Z,12.90
2022-09-26T04:14:27.810Z,11.37
2022-09-26T04:17:01.096Z,12.83
2022-09-26T04:19:34.742Z,11.70
2022-09-26T04:22:08.378Z,11.67
2022-09-26T04:24:37.815Z,13.23
2022-09-26T04:27:11.657Z,14.27
2022-09-26T04:29:40.926Z,14.67
2022-09-26T04:32:13.694Z,14.97
2022-09-26T04:34:55.218Z,14.50
2022-09-26T04:37:25.548Z,18.43
2022-09-26T04:39:54.877Z,13.23
2022-09-26T04:42:26.096Z,13.30
2022-09-26T04:44:55.011Z,11.67
2022-09-26T04:50:19.132Z,12.90
2022-09-26T04:53:08.162Z,14.57
2022-09-26T04:55:59.927Z,13.97
2022-09-26T04:58:32.489Z,14.20
2022-09-26T05:01:06.198Z,14.40
2022-09-26T05:03:46.699Z,13.47
2022-09-26T05:06:17.755Z,13.67
2022-09-26T05:08:48.637Z,12.70
2022-09-26T05:11:28.327Z,12.13
2022-09-26T05:13:58.321Z,12.03
2022-09-26T05:16:30.711Z,16.73
2022-09-26T05:19:02.545Z,13.87
2022-09-26T05:21:31.549Z,12.63
2022-09-26T05:24:19.081Z,13.10
2022-09-26T05:26:52.482Z,14.17
2022-09-26T05:29:22.450Z,14.03
2022-09-26T05:31:56.231Z,13.97
2022-09-26T05:34:29.097Z,14.53
2022-09-26T05:36:57.751Z,12.83
2022-09-26T05:39:45.280Z,12.73
2022-09-26T05:42:15.477Z,12.83
2022-09-26T05:44:44.975Z,10.43
2022-09-26T05:47:14.245Z,10.40
2022-09-26T05:49:42.910Z,12.27
2022-09-26T05:52:15.987Z,13.90
2022-09-26T05:54:45.963Z,11.73
2022-09-26T05:57:40.708Z,12.10
2022-09-26T06:00:10.851Z,12.70
2022-09-26T06:02:55.167Z,14.23
2022-09-26T06:05:38.205Z,12.83
2022-09-26T06:08:17.497Z,15.70
2022-09-26T06:10:52.065Z,12.10
2022-09-26T06:13:21.687Z,14.17
2022-09-26T06:15:54.675Z,12.50
2022-09-26T06:18:23.498Z,15.67
2022-09-26T06:20:52.332Z,13.27
2022-09-26T06:23:21.218Z,13.87
2022-09-26T06:25:51.287Z,12.93
2022-09-26T06:28:20.159Z,13.37
2022-09-26T06:30:48.811Z,11.17
2022-09-26T06:33:33.137Z,12.93
2022-09-26T06:36:16.424Z,11.70
2022-09-26T06:38:45.134Z,13.37
2022-09-26T06:41:19.710Z,11.80
2022-09-26T06:43:50.008Z,12.90
2022-09-26T06:46:32.357Z,13.13
2022-09-26T06:49:14.148Z,14.60
2022-09-26T06:51:49.018Z,11.13
2022-09-26T06:54:19.124Z,12.07
2022-09-26T06:56:49.873Z,14.07
2022-09-26T06:59:18.615Z,11.17
2022-09-26T07:01:56.743Z,11.30
2022-09-26T07:04:52.353Z,14.53
2022-09-26T07:07:41.951Z,13.73
2022-09-26T07:10:16.904Z,14.03
2022-09-26T07:13:08.081Z,15.70
2022-09-26T07:15:38.349Z,11.80
2022-09-26T07:18:25.834Z,11.90
2022-09-26T07:21:18.130Z,15.03
2022-09-26T07:23:49.723Z,14.20
2022-09-26T07:26:21.484Z,11.70
2022-09-26T07:28:54.735Z,12.87
2022-09-26T07:31:25.242Z,14.07
2022-09-26T07:34:18.164Z,16.07
2022-09-26T07:36:47.850Z,11.63
2022-09-26T07:39:17.357Z,11.77
2022-09-26T07:41:46.878Z,14.07
2022-09-26T07:47:23.711Z,14.30
2022-09-26T07:50:09.900Z,12.57
2022-09-26T07:52:50.458Z,13.73
2022-09-26T07:55:27.315Z,12.43
2022-09-26T07:58:26.070Z,13.93
2022-09-26T08:01:18.498Z,12.23
2022-09-26T08:04:06.588Z,12.20
2022-09-26T08:06:39.266Z,13.10
2022-09-26T08:09:08.075Z,11.50
2022-09-26T08:12:05.903Z,12.10
2022-09-26T08:14:53.331Z,13.27
2022-09-26T08:17:36.197Z,12.50
2022-09-26T08:20:05.944Z,14.67
2022-09-26T08:22:35.089Z,11.00
2022-09-26T08:25:04.249Z,9.57
2022-09-26T08:27:53.225Z,9.23
2022-09-26T08:30:25.318Z,11.63
2022-09-26T08:33:01.368Z,7.30
2022-09-26T08:35:38.559Z,11.17
2022-09-26T08:38:40.397Z,11.67
2022-09-26T08:42:00.739Z,10.40
2022-09-26T08:45:47.502Z,11.67
2022-09-26T08:49:14.258Z,9.43
2022-09-26T08:51:49.413Z,7.17
2022-09-26T08:54:27.474Z,7.57
2022-09-26T08:57:06.854Z,9.27
2022-09-26T08:59:42.707Z,9.70
2022-09-26T09:02:30.347Z,8.60
2022-09-26T09:05:12.690Z,8.37
2022-09-26T09:07:52.945Z,5.43
2022-09-26T09:10:47.751Z,8.50
2022-09-26T09:13:49.821Z,7.10
2022-09-26T09:17:08.287Z,4.87
2022-09-26T09:20:16.195Z,4.03
2022-09-26T09:23:35.768Z,5.47
2022-09-26T09:29:41.813Z,7.67
2022-09-26T09:32:53.263Z,3.03
2022-09-26T09:36:02.404Z,3.80
2022-09-26T09:38:47.197Z,3.17
2022-09-26T09:41:43.225Z,4.50
2022-09-26T09:44:29.515Z,5.20
2022-09-26T09:46:58.211Z,4.63
2022-09-26T09:49:27.982Z,6.80
2022-09-26T09:52:23.323Z,2.67
2022-09-26T09:55:16.256Z,5.07
2022-09-26T09:58:08.760Z,4.67
2022-09-26T10:00:49.039Z,3.30
2022-09-26T10:03:34.983Z,3.43
2022-09-26T10:06:45.099Z,4.13
2022-09-26T10:09:39.283Z,3.43
2022-09-26T10:12:21.522Z,4.53
2022-09-26T10:15:20.812Z,2.80
2022-09-26T10:18:26.660Z,3.87
2022-09-26T10:21:13.353Z,4.03
2022-09-26T10:23:46.894Z,2.93
2022-09-26T10:26:36.025Z,3.50
2022-09-26T10:29:21.520Z,4.07
2022-09-26T10:32:00.407Z,3.87
2022-09-26T10:34:33.215Z,6.03
2022-09-26T10:37:24.373Z,7.80
2022-09-26T10:40:18.002Z,5.73
2022-09-26T10:42:49.925Z,2.60
2022-09-26T10:45:29.332Z,2.33
2022-09-26T10:47:59.437Z,3.73
2022-09-26T10:51:00.661Z,5.27
2022-09-26T10:54:04.502Z,4.40
2022-09-26T10:56:50.862Z,2.13
2022-09-26T10:59:28.973Z,2.80
2022-09-26T11:01:59.530Z,3.83
2022-09-26T11:04:50.813Z,3.45
2022-09-26T11:07:43.171Z,4.20
2022-09-26T11:10:59.922Z,2.63
2022-09-26T11:13:48.229Z,3.33
2022-09-26T11:16:20.642Z,2.35
2022-09-26T11:19:05.260Z,3.45
2022-09-26T11:21:45.687Z,1.70
2022-09-26T11:27:28.353Z,3.00
2022-09-26T11:33:15.056Z,2.50
2022-09-26T11:36:53.201Z,2.35
2022-09-26T11:39:50.630Z,1.52
2022-09-26T11:42:37.590Z,2.75
2022-09-26T11:45:21.386Z,1.92
2022-09-26T11:48:37.308Z,1.80
2022-09-26T11:51:47.885Z,5.07
2022-09-26T11:54:53.641Z,1.98
2022-09-26T11:57:50.287Z,2.67
2022-09-26T12:00:27.538Z,1.97
2022-09-26T12:03:40.213Z,2.10
2022-09-26T12:06:23.870Z,3.42
2022-09-26T12:09:13.215Z,2.03
2022-09-26T12:11:57.170Z,3.33
2022-09-26T12:14:44.137Z,1.75
2022-09-26T12:17:25.534Z,4.35
2022-09-26T12:20:14.390Z,2.17
2022-09-26T12:22:56.704Z,3.77
2022-09-26T12:25:40.018Z,2.17
2022-09-26T12:28:43.308Z,2.20
2022-09-26T12:31:23.410Z,2.77
2022-09-26T12:34:16.085Z,3.05
2022-09-26T12:37:06.804Z,1.50
2022-09-26T12:40:09.566Z,2.07
2022-09-26T12:43:14.068Z,2.20
2022-09-26T12:46:04.859Z,2.10
2022-09-26T12:48:58.614Z,1.27
2022-09-26T12:51:44.095Z,2.53
2022-09-26T12:54:44.298Z,3.70
2022-09-26T12:57:30.911Z,3.17
2022-09-26T13:00:17.319Z,2.37
2022-09-26T13:03:45.647Z,2.40
2022-09-26T13:07:17.950Z,1.97
2022-09-26T13:10:22.303Z,2.67
2022-09-26T13:13:24.852Z,2.90
2022-09-26T13:16:26.479Z,1.80
2022-09-26T13:19:05.386Z,1.33
2022-09-26T13:21:48.803Z,1.93
2022-09-26T13:24:25.474Z,0.93
2022-09-26T13:27:06.108Z,4.60
2022-09-26T13:29:39.329Z,2.63
2022-09-26T13:32:23.032Z,4.63
2022-09-26T13:35:04.217Z,1.47
2022-09-26T13:37:56.610Z,3.07
2022-09-26T13:40:42.294Z,2.10
2022-09-26T13:43:29.230Z,1.67
2022-09-26T13:46:10.971Z,9.30
2022-09-26T13:48:51.911Z,0.30
2022-09-26T13:51:27.660Z,1.27
2022-09-26T13:54:10.706Z,2.57
2022-09-26T13:56:49.959Z,5.60
2022-09-26T13:59:54.599Z,2.37
2022-09-26T14:02:29.365Z,2.87
2022-09-26T14:05:47.173Z,2.33
2022-09-26T14:08:52.248Z,2.83
2022-09-26T14:11:45.492Z,0.57
2022-09-26T14:14:46.246Z,2.17
2022-09-26T14:18:22.205Z,2.60
2022-09-26T14:21:19.329Z,3.87
2022-09-26T14:24:11.091Z,5.87
2022-09-26T14:26:45.234Z,4.87
2022-09-26T14:29:36.661Z,3.27
2022-09-26T14:32:17.871Z,1.93
2022-09-26T14:34:59.514Z,2.20
2022-09-26T14:37:43.155Z,3.83
2022-09-26T14:40:28.300Z,2.37
2022-09-26T14:43:14.597Z,2.20
2022-09-26T14:45:51.480Z,5.33
2022-09-26T14:48:37.832Z,5.93
2022-09-26T14:51:25.952Z,4.13
2022-09-26T14:54:01.037Z,2.77
2022-09-26T14:56:45.450Z,2.93
2022-09-26T14:59:45.462Z,3.87
2022-09-26T15:02:31.484Z,5.17
2022-09-26T15:05:28.248Z,5.60
2022-09-26T15:08:00.695Z,3.07
2022-09-26T15:10:43.724Z,4.30
2022-09-26T15:13:29.905Z,2.00
2022-09-26T15:16:14.439Z,4.60
2022-09-26T15:18:49.027Z,2.30
2022-09-26T15:21:28.438Z,3.20
2022-09-26T15:23:58.914Z,4.27
2022-09-26T15:26:32.617Z,4.13
2022-09-26T15:29:02.242Z,4.77
2022-09-26T15:31:41.080Z,4.50
2022-09-26T15:34:16.618Z,2.30
2022-09-26T15:37:00.316Z,5.40
2022-09-26T15:39:43.496Z,2.90
2022-09-26T15:42:42.297Z,1.70
2022-09-26T15:45:23.389Z,2.97
2022-09-26T15:47:52.436Z,2.77
2022-09-26T15:50:26.442Z,3.07
2022-09-26T15:53:03.717Z,3.20
2022-09-26T15:55:43.860Z,4.10
2022-09-26T15:58:19.957Z,8.13
2022-09-26T16:00:52.855Z,4.40
2022-09-26T16:03:45.943Z,3.93
2022-09-26T16:06:30.271Z,4.73
2022-09-26T16:09:25.741Z,7.93
2022-09-26T16:12:01.326Z,4.07
2022-09-26T16:14:41.461Z,7.27
2022-09-26T16:17:23.584Z,3.83
2022-09-26T16:19:55.887Z,11.47
2022-09-26T16:22:44.913Z,6.97
2022-09-26T16:25:32.144Z,7.43
2022-09-26T16:28:19.141Z,4.90
2022-09-26T16:31:10.579Z,6.00
2022-09-26T16:33:42.640Z,3.47
2022-09-26T16:36:20.831Z,6.20
2022-09-26T16:39:02.881Z,8.93
2022-09-26T16:42:00.637Z,11.03
2022-09-26T16:44:35.736Z,10.63
2022-09-26T16:47:29.961Z,7.67
2022-09-26T16:50:17.448Z,9.80
2022-09-26T16:52:46.642Z,6.53
2022-09-26T16:55:15.656Z,9.40
2022-09-26T16:57:55.489Z,7.53
2022-09-26T17:00:50.098Z,7.70
2022-09-26T17:03:25.263Z,7.37
2022-09-26T17:05:58.248Z,5.90
2022-09-26T17:08:30.121Z,14.63
2022-09-26T17:11:05.089Z,13.03
2022-09-26T17:13:40.199Z,18.77
2022-09-26T17:16:11.217Z,22.13
2022-09-26T17:18:44.259Z,16.27
2022-09-26T17:21:14.826Z,15.07
2022-09-26T17:23:44.166Z,14.07
2022-09-26T17:26:21.882Z,17.50
2022-09-26T17:28:54.488Z,9.90
2022-09-26T17:31:24.892Z,9.87
2022-09-26T17:33:55.504Z,6.67
2022-09-26T17:36:28.060Z,6.73
2022-09-26T17:38:59.621Z,15.27
2022-09-26T17:41:29.027Z,17.90
2022-09-26T17:44:01.177Z,21.63
2022-09-26T17:46:30.576Z,25.23
2022-09-26T17:49:05.192Z,26.77
2022-09-26T17:51:35.807Z,33.73
2022-09-26T17:54:07.215Z,33.77
2022-09-26T17:56:36.032Z,28.97
2022-09-26T17:59:18.690Z,24.87
2022-09-26T18:01:52.394Z,14.90
2022-09-26T18:04:23.245Z,9.40
2022-09-26T18:06:54.335Z,10.50
2022-09-26T18:09:23.839Z,13.00
2022-09-26T18:12:01.000Z,10.97
2022-09-26T18:14:35.562Z,7.67
2022-09-26T18:17:04.569Z,8.30
2022-09-26T18:19:35.307Z,8.63
2022-09-26T18:22:04.126Z,12.47
2022-09-26T18:24:33.116Z,7.37
2022-09-26T18:27:07.222Z,7.00
2022-09-26T18:29:41.267Z,7.37
2022-09-26T18:32:21.754Z,4.63
2022-09-26T18:34:50.496Z,7.37
2022-09-26T18:37:19.411Z,5.83
2022-09-26T18:39:53.638Z,8.10
2022-09-26T18:42:24.885Z,7.77
2022-09-26T18:45:03.679Z,8.20
2022-09-26T18:47:40.525Z,5.00
2022-09-26T18:50:22.287Z,4.63
2022-09-26T18:52:52.206Z,5.57
2022-09-26T18:55:41.439Z,6.43
2022-09-26T18:58:27.408Z,6.60
2022-09-26T19:01:01.030Z,5.07
2022-09-26T19:03:32.995Z,6.60
2022-09-26T19:06:06.585Z,4.47
2022-09-26T19:08:39.610Z,5.93
2022-09-26T19:11:20.248Z,8.90
2022-09-26T19:13:57.631Z,6.77
2022-09-26T19:16:27.993Z,5.90
2022-09-26T19:19:02.796Z,9.60
2022-09-26T19:21:38.833Z,8.00
2022-09-26T19:24:20.559Z,7.33
2022-09-26T19:26:54.444Z,8.97
2022-09-26T19:29:31.608Z,8.70
2022-09-26T19:32:23.211Z,8.63
2022-09-26T19:34:57.956Z,7.93
2022-09-26T19:37:26.791Z,11.37
2022-09-26T19:39:58.807Z,9.00
2022-09-26T19:42:27.808Z,9.33
2022-09-26T19:44:58.522Z,10.57
2022-09-26T19:47:33.581Z,10.43
2022-09-26T19:50:02.741Z,10.60
2022-09-26T19:52:32.248Z,9.00
2022-09-26T19:55:01.063Z,10.20
2022-09-26T19:57:30.025Z,9.07
2022-09-26T20:00:03.030Z,9.23
2022-09-26T20:02:35.069Z,7.50
2022-09-26T20:05:16.500Z,9.43
2022-09-26T20:07:47.799Z,7.60
2022-09-26T20:10:19.399Z,7.57
2022-09-26T20:12:49.674Z,6.17
2022-09-26T20:15:21.266Z,6.73
2022-09-26T20:17:55.184Z,7.97
2022-09-26T20:20:26.628Z,5.73
2022-09-26T20:22:57.499Z,6.43
2022-09-26T20:25:31.073Z,6.47
2022-09-26T20:28:00.923Z,7.73
2022-09-26T20:30:47.807Z,5.70
2022-09-26T20:33:22.016Z,4.93
2022-09-26T20:35:57.789Z,8.30
2022-09-26T20:38:37.958Z,6.93
2022-09-26T20:41:13.543Z,6.13
2022-09-26T20:43:48.029Z,7.40
2022-09-26T20:46:17.084Z,5.90
2022-09-26T20:48:50.426Z,5.47
2022-09-26T20:51:25.026Z,8.03
2022-09-26T20:53:54.204Z,7.97
2022-09-26T20:56:22.907Z,6.93
2022-09-26T20:58:51.692Z,8.53
2022-09-26T21:01:23.343Z,3.53
2022-09-26T21:03:56.567Z,5.47
2022-09-26T21:06:31.690Z,3.77
2022-09-26T21:09:00.521Z,6.37
2022-09-26T21:11:29.442Z,5.40
2022-09-26T21:13:58.155Z,6.20
2022-09-26T21:16:27.438Z,4.00
2022-09-26T21:18:57.568Z,3.70
2022-09-26T21:21:30.509Z,4.40
2022-09-26T21:24:00.801Z,4.30
2022-09-26T21:26:31.358Z,5.73
2022-09-26T21:29:00.105Z,5.17
2022-09-26T21:31:33.545Z,5.80
2022-09-26T21:34:05.386Z,6.27
2022-09-26T21:36:40.407Z,5.33
2022-09-26T21:39:09.195Z,6.10
2022-09-26T21:41:38.311Z,9.00
2022-09-26T21:44:17.320Z,3.67
2022-09-26T21:46:46.303Z,4.67
2022-09-26T21:49:16.565Z,5.77
2022-09-26T21:51:52.657Z,4.33
2022-09-26T21:54:29.239Z,8.50
2022-09-26T21:57:07.458Z,3.97
2022-09-26T21:59:41.157Z,7.37
2022-09-26T22:02:09.963Z,3.57
2022-09-26T22:04:40.400Z,6.30
2022-09-26T22:07:09.594Z,5.87
2022-09-26T22:09:38.308Z,6.40
2022-09-26T22:12:07.484Z,5.37
2022-09-26T22:14:36.170Z,4.43
2022-09-26T22:17:04.967Z,7.70
2022-09-26T22:19:35.237Z,4.73
2022-09-26T22:22:05.702Z,7.77
2022-09-26T22:24:34.432Z,4.40
2022-09-26T22:27:03.252Z,6.00
2022-09-26T22:29:32.705Z,6.07
2022-09-26T22:32:03.887Z,4.97
2022-09-26T22:34:32.812Z,6.27
2022-09-26T22:37:01.681Z,6.27
2022-09-26T22:39:31.958Z,4.50
2022-09-26T22:42:00.755Z,5.13
2022-09-26T22:44:29.471Z,6.07
2022-09-26T22:46:58.227Z,5.73
2022-09-26T22:49:27.281Z,6.00
2022-09-26T22:51:56.193Z,7.40
2022-09-26T22:54:25.109Z,6.50
2022-09-26T22:56:58.432Z,5.07
2022-09-26T22:59:27.211Z,3.63
2022-09-26T23:01:58.482Z,5.20
2022-09-26T23:04:46.964Z,4.90
2022-09-26T23:07:18.888Z,5.50
2022-09-26T23:09:48.004Z,4.60
2022-09-26T23:12:19.184Z,4.13
2022-09-26T23:14:47.899Z,9.30
2022-09-26T23:17:17.668Z,4.60
2022-09-26T23:19:46.666Z,4.20
2022-09-26T23:22:15.474Z,4.97
2022-09-26T23:24:46.249Z,5.93
2022-09-26T23:27:15.002Z,6.30
2022-09-26T23:29:45.194Z,5.67
2022-09-26T23:32:14.007Z,7.87
2022-09-26T23:34:42.742Z,5.03
2022-09-26T23:37:11.478Z,5.87
2022-09-26T23:39:40.170Z,5.23
2022-09-26T23:42:09.276Z,5.03
2022-09-26T23:44:37.983Z,7.33
2022-09-26T23:47:08.263Z,5.97
2022-09-26T23:49:37.064Z,3.80
2022-09-26T23:52:05.864Z,8.73
2022-09-26T23:54:34.627Z,6.67
2022-09-26T23:57:03.321Z,5.27
2022-09-26T23:59:32.042Z,3.80
